createdAt,value
2023-04-15T00:00:15.586Z,16.1846
2023-04-15T00:01:17.934Z,16.0385
2023-04-15T00:02:20.536Z,15.3231
2023-04-15T00:03:23.030Z,15.8750
2023-04-15T00:04:25.042Z,15.7750
2023-04-15T00:05:27.252Z,14.8077
2023-04-15T00:06:29.584Z,15.5385
2023-04-15T00:07:31.933Z,16.4615
2023-04-15T00:08:34.257Z,15.2769
2023-04-15T00:09:36.577Z,15.5308
2023-04-15T00:10:38.917Z,14.8154
2023-04-15T00:11:41.251Z,15.1615
2023-04-15T00:12:43.586Z,15.9615
2023-04-15T00:13:45.905Z,15.6000
2023-04-15T00:14:48.232Z,15.6462
2023-04-15T00:15:50.576Z,15.7308
2023-04-15T00:16:52.912Z,16.9538
2023-04-15T00:17:55.259Z,17.0615
2023-04-15T00:18:57.656Z,17.0077
2023-04-15T00:19:59.886Z,15.9385
2023-04-15T00:21:02.277Z,17.3846
2023-04-15T00:22:04.550Z,18.0308
2023-04-15T00:23:06.898Z,17.4462
2023-04-15T00:24:09.237Z,20.1692
2023-04-15T00:25:11.582Z,18.7385
2023-04-15T00:26:13.917Z,17.7077
2023-04-15T00:27:16.240Z,17.3846
2023-04-15T00:28:18.577Z,18.7923
2023-04-15T00:29:20.907Z,17.1846
2023-04-15T00:30:23.233Z,16.5385
2023-04-15T00:31:25.690Z,15.2769
2023-04-15T00:32:27.937Z,16.6615
2023-04-15T00:33:30.237Z,15.9231
2023-04-15T00:34:32.584Z,16.1077
2023-04-15T00:35:34.907Z,15.2846
2023-04-15T00:36:37.253Z,15.2462
2023-04-15T00:37:39.575Z,16.5077
2023-04-15T00:38:41.914Z,14.9692
2023-04-15T00:39:44.242Z,15.4462
2023-04-15T00:40:46.590Z,14.2846
2023-04-15T00:41:48.928Z,14.3000
2023-04-15T00:42:51.241Z,15.3231
2023-04-15T00:43:53.573Z,15.1231
2023-04-15T00:44:55.905Z,14.4923
2023-04-15T00:45:58.327Z,17.1615
2023-04-15T00:47:00.570Z,14.5000
2023-04-15T00:48:02.918Z,15.1692
2023-04-15T00:49:05.234Z,16.3462
2023-04-15T00:50:07.557Z,16.0538
2023-04-15T00:51:09.923Z,17.1308
2023-04-15T00:52:12.233Z,15.4538
2023-04-15T00:53:14.544Z,16.0615
2023-04-15T00:54:16.873Z,16.0615
2023-04-15T00:55:19.217Z,16.6077
2023-04-15T00:56:21.534Z,15.0769
2023-04-15T00:57:23.890Z,15.9231
2023-04-15T00:58:26.203Z,15.8692
2023-04-15T00:59:28.537Z,16.2308
2023-04-15T01:00:30.865Z,16.9846
2023-04-15T01:01:33.242Z,16.2000
2023-04-15T01:02:35.642Z,15.4154
2023-04-15T01:03:38.118Z,14.9923
2023-04-15T01:04:40.194Z,13.9167
2023-04-15T01:05:42.521Z,15.1846
2023-04-15T01:06:44.861Z,15.2538
2023-04-15T01:07:47.207Z,15.1769
2023-04-15T01:08:49.517Z,16.1462
2023-04-15T01:09:51.848Z,16.3462
2023-04-15T01:10:54.176Z,14.9154
2023-04-15T01:11:56.510Z,16.8385
2023-04-15T01:12:58.855Z,15.2154
2023-04-15T01:14:01.178Z,14.8462
2023-04-15T01:15:03.505Z,14.9308
2023-04-15T01:16:05.874Z,15.7385
2023-04-15T01:17:08.176Z,14.4692
2023-04-15T01:18:10.507Z,15.4077
2023-04-15T01:19:12.832Z,15.2385
2023-04-15T01:20:15.174Z,14.7231
2023-04-15T01:21:17.496Z,14.1385
2023-04-15T01:22:19.835Z,14.0923
2023-04-15T01:23:22.162Z,13.6692
2023-04-15T01:24:24.485Z,14.2000
2023-04-15T01:25:26.830Z,13.8077
2023-04-15T01:26:29.156Z,14.8385
2023-04-15T01:27:31.478Z,14.6538
2023-04-15T01:28:33.810Z,14.6923
2023-04-15T01:29:36.145Z,12.9615
2023-04-15T01:30:38.504Z,13.8923
2023-04-15T01:31:40.841Z,14.4154
2023-04-15T01:32:43.184Z,15.3385
2023-04-15T01:33:45.480Z,14.4308
2023-04-15T01:34:47.804Z,13.6923
2023-04-15T01:35:50.159Z,15.3462
2023-04-15T01:36:52.495Z,14.2846
2023-04-15T01:37:54.805Z,14.3846
2023-04-15T01:38:57.142Z,15.5000
2023-04-15T01:39:59.473Z,14.9000
2023-04-15T01:41:01.866Z,15.1385
2023-04-15T01:42:04.148Z,15.9615
2023-04-15T01:43:06.477Z,15.6923
2023-04-15T01:44:08.817Z,16.3231
2023-04-15T01:45:11.144Z,15.3846
2023-04-15T01:46:13.517Z,15.4769
2023-04-15T01:47:15.806Z,15.1231
2023-04-15T01:48:18.142Z,15.3231
2023-04-15T01:49:20.497Z,15.6538
2023-04-15T01:50:22.813Z,15.3308
2023-04-15T01:51:25.139Z,14.3000
2023-04-15T01:52:27.474Z,13.8462
2023-04-15T01:53:29.808Z,14.8615
2023-04-15T01:54:32.159Z,13.8923
2023-04-15T01:55:34.474Z,14.0846
2023-04-15T01:56:36.828Z,13.6692
2023-04-15T01:57:39.146Z,14.7077
2023-04-15T01:58:41.473Z,14.3769
2023-04-15T01:59:43.814Z,14.2462
2023-04-15T02:00:46.154Z,15.3077
2023-04-15T02:01:48.511Z,15.1923
2023-04-15T02:02:50.856Z,14.0692
2023-04-15T02:03:53.181Z,13.8077
2023-04-15T02:04:55.479Z,14.1231
2023-04-15T02:05:57.817Z,13.3462
2023-04-15T02:07:00.271Z,13.1538
2023-04-15T02:08:02.562Z,13.4769
2023-04-15T02:09:04.893Z,12.6385
2023-04-15T02:10:07.236Z,13.6077
2023-04-15T02:11:09.567Z,13.6769
2023-04-15T02:12:11.927Z,14.6385
2023-04-15T02:13:14.255Z,15.2000
2023-04-15T02:14:16.579Z,14.8385
2023-04-15T02:15:18.917Z,14.9615
2023-04-15T02:16:21.333Z,15.2615
2023-04-15T02:17:23.608Z,14.7077
2023-04-15T02:18:25.937Z,13.3769
2023-04-15T02:19:28.248Z,14.0462
2023-04-15T02:20:30.584Z,14.7000
2023-04-15T02:21:32.924Z,14.5692
2023-04-15T02:22:35.286Z,13.6231
2023-04-15T02:23:37.593Z,13.5923
2023-04-15T02:24:39.925Z,14.1538
2023-04-15T02:25:42.267Z,15.0231
2023-04-15T02:26:44.612Z,15.4636
2023-04-15T02:27:46.974Z,15.6231
2023-04-15T02:28:49.265Z,14.7231
2023-04-15T02:29:51.602Z,15.7308
2023-04-15T02:30:53.946Z,14.5308
2023-04-15T02:31:56.342Z,15.0385
2023-04-15T02:32:58.667Z,15.4538
2023-04-15T02:34:00.944Z,16.0769
2023-04-15T02:35:03.357Z,15.3615
2023-04-15T02:36:05.614Z,16.1000
2023-04-15T02:37:07.952Z,14.9231
2023-04-15T02:38:10.296Z,14.9231
2023-04-15T02:39:12.633Z,15.2692
2023-04-15T02:40:14.970Z,15.4077
2023-04-15T02:41:17.305Z,15.4000
2023-04-15T02:42:19.640Z,14.8769
2023-04-15T02:43:22.092Z,14.4000
2023-04-15T02:44:24.310Z,14.5462
2023-04-15T02:45:26.658Z,14.8923
2023-04-15T02:46:29.095Z,14.5769
2023-04-15T02:47:31.359Z,15.1538
2023-04-15T02:48:33.696Z,14.8615
2023-04-15T02:49:35.993Z,13.9000
2023-04-15T02:50:38.698Z,14.2308
2023-04-15T02:51:40.673Z,15.1417
2023-04-15T02:52:43.008Z,14.5769
2023-04-15T02:53:45.343Z,14.8692
2023-04-15T02:54:47.680Z,12.1385
2023-04-15T02:55:50.039Z,13.7154
2023-04-15T02:56:52.360Z,13.9154
2023-04-15T02:57:54.697Z,14.4154
2023-04-15T02:58:57.037Z,15.0000
2023-04-15T02:59:59.360Z,14.4769
2023-04-15T03:01:01.738Z,14.7077
2023-04-15T03:02:04.069Z,13.9154
2023-04-15T03:03:06.724Z,14.2538
2023-04-15T03:04:08.840Z,13.7833
2023-04-15T03:05:11.055Z,14.5333
2023-04-15T03:06:13.429Z,14.2154
2023-04-15T03:07:15.741Z,14.8462
2023-04-15T03:08:18.070Z,14.5692
2023-04-15T03:09:20.414Z,15.0000
2023-04-15T03:10:22.762Z,13.9385
2023-04-15T03:11:25.097Z,14.6077
2023-04-15T03:12:27.420Z,14.2231
2023-04-15T03:13:29.749Z,15.3077
2023-04-15T03:14:32.117Z,14.6615
2023-04-15T03:15:34.431Z,14.5615
2023-04-15T03:16:36.776Z,13.5000
2023-04-15T03:17:39.134Z,14.2385
2023-04-15T03:18:41.419Z,14.4000
2023-04-15T03:19:43.762Z,14.4692
2023-04-15T03:20:46.128Z,14.4692
2023-04-15T03:21:48.448Z,14.3538
2023-04-15T03:22:50.772Z,15.1077
2023-04-15T03:23:53.206Z,14.8385
2023-04-15T03:24:55.439Z,14.5769
2023-04-15T03:25:57.782Z,15.0154
2023-04-15T03:27:00.139Z,13.7308
2023-04-15T03:28:02.446Z,13.7308
2023-04-15T03:29:04.787Z,14.4923
2023-04-15T03:30:07.125Z,14.4308
2023-04-15T03:31:09.488Z,13.9462
2023-04-15T03:32:11.818Z,14.1231
2023-04-15T03:33:14.129Z,14.4000
2023-04-15T03:34:16.484Z,14.0846
2023-04-15T03:35:18.814Z,13.9615
2023-04-15T03:36:21.160Z,13.5000
2023-04-15T03:37:23.486Z,13.9154
2023-04-15T03:38:25.814Z,13.8077
2023-04-15T03:39:28.146Z,13.5615
2023-04-15T03:40:30.492Z,14.3692
2023-04-15T03:41:32.864Z,14.6923
2023-04-15T03:42:35.171Z,14.3692
2023-04-15T03:43:37.496Z,13.2846
2023-04-15T03:44:39.836Z,13.6385
2023-04-15T03:45:42.191Z,13.8692
2023-04-15T03:46:44.598Z,14.2538
2023-04-15T03:47:46.859Z,12.6692
2023-04-15T03:48:49.193Z,13.1385
2023-04-15T03:49:51.519Z,13.8231
2023-04-15T03:50:53.863Z,14.5462
2023-04-15T03:51:56.192Z,15.1308
2023-04-15T03:52:58.534Z,13.8923
2023-04-15T03:54:00.856Z,13.6308
2023-04-15T03:55:03.211Z,13.5846
2023-04-15T03:56:05.527Z,13.9769
2023-04-15T03:57:07.864Z,14.8385
2023-04-15T03:58:10.208Z,15.4231
2023-04-15T03:59:12.527Z,15.6923
2023-04-15T04:00:14.860Z,14.7923
2023-04-15T04:01:17.201Z,14.7923
2023-04-15T04:02:19.582Z,14.1923
2023-04-15T04:03:22.584Z,14.9154
2023-04-15T04:04:24.331Z,15.2750
2023-04-15T04:05:26.525Z,13.4846
2023-04-15T04:06:28.863Z,12.5385
2023-04-15T04:07:31.220Z,14.7692
2023-04-15T04:08:33.646Z,14.4308
2023-04-15T04:09:35.876Z,13.7769
2023-04-15T04:10:38.245Z,14.0000
2023-04-15T04:11:40.572Z,14.3385
2023-04-15T04:12:42.892Z,15.4923
2023-04-15T04:13:45.245Z,15.4000
2023-04-15T04:14:47.559Z,15.2308
2023-04-15T04:15:49.968Z,14.8538
2023-04-15T04:16:52.251Z,14.3769
2023-04-15T04:17:54.620Z,14.4846
2023-04-15T04:18:56.905Z,14.4615
2023-04-15T04:19:59.243Z,14.2538
2023-04-15T04:21:01.585Z,14.4846
2023-04-15T04:22:03.912Z,14.4615
2023-04-15T04:23:06.237Z,14.4231
2023-04-15T04:24:08.588Z,14.1692
2023-04-15T04:25:10.921Z,14.1462
2023-04-15T04:26:13.291Z,15.0231
2023-04-15T04:27:15.584Z,14.0385
2023-04-15T04:28:17.933Z,15.3308
2023-04-15T04:29:20.263Z,14.9923
2023-04-15T04:30:22.597Z,15.4385
2023-04-15T04:31:24.972Z,15.6385
2023-04-15T04:32:27.306Z,15.9462
2023-04-15T04:33:29.621Z,15.7077
2023-04-15T04:34:31.937Z,15.8769
2023-04-15T04:35:34.277Z,15.7769
2023-04-15T04:36:36.622Z,15.8692
2023-04-15T04:37:38.953Z,16.2462
2023-04-15T04:38:41.293Z,14.6692
2023-04-15T04:39:43.625Z,15.3154
2023-04-15T04:40:45.953Z,14.4923
2023-04-15T04:41:48.294Z,15.1846
2023-04-15T04:42:50.625Z,15.8846
2023-04-15T04:43:52.972Z,15.5308
2023-04-15T04:44:55.293Z,14.2308
2023-04-15T04:45:57.674Z,14.2923
2023-04-15T04:46:59.985Z,15.5846
2023-04-15T04:48:02.317Z,14.9462
2023-04-15T04:49:04.919Z,14.5000
2023-04-15T04:50:06.972Z,15.5333
2023-04-15T04:51:09.308Z,14.4846
2023-04-15T04:52:11.682Z,15.6077
2023-04-15T04:53:14.005Z,15.1231
2023-04-15T04:54:16.320Z,14.9692
2023-04-15T04:55:18.648Z,15.7615
2023-04-15T04:56:20.984Z,14.9615
2023-04-15T04:57:23.313Z,14.8462
2023-04-15T04:58:25.649Z,15.9769
2023-04-15T04:59:27.984Z,15.4615
2023-04-15T05:00:30.325Z,15.4462
2023-04-15T05:01:32.701Z,15.7769
2023-04-15T05:02:35.072Z,13.2308
2023-04-15T05:03:37.406Z,14.9923
2023-04-15T05:04:39.665Z,14.9615
2023-04-15T05:05:42.006Z,15.5615
2023-04-15T05:06:44.337Z,15.4154
2023-04-15T05:07:46.669Z,15.6154
2023-04-15T05:08:49.016Z,14.4154
2023-04-15T05:09:51.345Z,14.3462
2023-04-15T05:10:53.700Z,14.4154
2023-04-15T05:11:56.016Z,14.7308
2023-04-15T05:12:58.350Z,14.7538
2023-04-15T05:14:00.686Z,15.8846
2023-04-15T05:15:03.029Z,14.0385
2023-04-15T05:16:05.448Z,15.2077
2023-04-15T05:17:07.705Z,15.3538
2023-04-15T05:18:10.038Z,15.2077
2023-04-15T05:19:12.374Z,15.4462
2023-04-15T05:20:14.708Z,14.7538
2023-04-15T05:21:17.059Z,15.4000
2023-04-15T05:22:19.388Z,15.0692
2023-04-15T05:23:21.721Z,14.0308
2023-04-15T05:24:24.066Z,15.0077
2023-04-15T05:25:26.394Z,15.4231
2023-04-15T05:26:28.739Z,14.8769
2023-04-15T05:27:31.074Z,15.4000
2023-04-15T05:28:33.407Z,14.6846
2023-04-15T05:29:35.741Z,14.6692
2023-04-15T05:30:38.189Z,14.7923
2023-04-15T05:31:40.590Z,14.4538
2023-04-15T05:32:42.781Z,15.1154
2023-04-15T05:33:45.084Z,14.6000
2023-04-15T05:34:47.421Z,14.9615
2023-04-15T05:35:49.754Z,14.8615
2023-04-15T05:36:52.098Z,14.7692
2023-04-15T05:37:54.436Z,14.9462
2023-04-15T05:38:56.755Z,15.0308
2023-04-15T05:39:59.095Z,13.8615
2023-04-15T05:41:01.428Z,14.5846
2023-04-15T05:42:03.782Z,14.6154
2023-04-15T05:43:06.114Z,15.4846
2023-04-15T05:44:08.440Z,14.1769
2023-04-15T05:45:10.776Z,15.5000
2023-04-15T05:46:13.180Z,14.7846
2023-04-15T05:47:15.553Z,15.5615
2023-04-15T05:48:17.794Z,15.2538
2023-04-15T05:49:20.125Z,14.9769
2023-04-15T05:50:22.467Z,16.0385
2023-04-15T05:51:24.815Z,14.2692
2023-04-15T05:52:27.142Z,13.7923
2023-04-15T05:53:29.483Z,14.6231
2023-04-15T05:54:31.811Z,14.8385
2023-04-15T05:55:34.144Z,15.6538
2023-04-15T05:56:36.493Z,15.0538
2023-04-15T05:57:38.827Z,14.8692
2023-04-15T05:58:41.152Z,14.6077
2023-04-15T05:59:43.485Z,13.9750
2023-04-15T06:00:45.826Z,15.1846
2023-04-15T06:01:48.284Z,16.3846
2023-04-15T06:02:50.654Z,15.5077
2023-04-15T06:03:52.972Z,14.0385
2023-04-15T06:04:55.193Z,15.7385
2023-04-15T06:05:57.516Z,14.4923
2023-04-15T06:06:59.847Z,16.0154
2023-04-15T06:08:02.190Z,14.4615
2023-04-15T06:09:04.702Z,13.8692
2023-04-15T06:10:06.869Z,14.2000
2023-04-15T06:11:09.190Z,15.5923
2023-04-15T06:12:11.622Z,15.7462
2023-04-15T06:13:13.949Z,13.8308
2023-04-15T06:14:16.268Z,14.7462
2023-04-15T06:15:18.602Z,14.6462
2023-04-15T06:16:20.979Z,14.0154
2023-04-15T06:17:23.301Z,13.1231
2023-04-15T06:18:25.615Z,13.3077
2023-04-15T06:19:27.941Z,14.0846
2023-04-15T06:20:30.292Z,12.7769
2023-04-15T06:21:32.607Z,13.7846
2023-04-15T06:22:34.952Z,14.7615
2023-04-15T06:23:37.281Z,14.7538
2023-04-15T06:24:39.709Z,13.5846
2023-04-15T06:25:41.957Z,13.5923
2023-04-15T06:26:44.280Z,14.0462
2023-04-15T06:27:46.625Z,14.3538
2023-04-15T06:28:48.954Z,14.6077
2023-04-15T06:29:51.319Z,13.6923
2023-04-15T06:30:53.617Z,15.4154
2023-04-15T06:31:55.981Z,14.1308
2023-04-15T06:32:58.323Z,14.9385
2023-04-15T06:34:00.626Z,13.0923
2023-04-15T06:35:02.998Z,13.5538
2023-04-15T06:36:05.300Z,13.9923
2023-04-15T06:37:07.637Z,13.5846
2023-04-15T06:38:09.977Z,13.2154
2023-04-15T06:39:12.320Z,14.4769
2023-04-15T06:40:14.681Z,13.6231
2023-04-15T06:41:16.979Z,14.4769
2023-04-15T06:42:19.314Z,13.8154
2023-04-15T06:43:21.649Z,14.2769
2023-04-15T06:44:23.988Z,13.9154
2023-04-15T06:45:26.375Z,14.2923
2023-04-15T06:46:28.670Z,14.1462
2023-04-15T06:47:31.061Z,14.2923
2023-04-15T06:48:33.346Z,14.9231
2023-04-15T06:49:35.684Z,14.5923
2023-04-15T06:50:38.023Z,14.1846
2023-04-15T06:51:40.354Z,14.5077
2023-04-15T06:52:42.696Z,13.4615
2023-04-15T06:53:45.031Z,14.5231
2023-04-15T06:54:47.370Z,12.9615
2023-04-15T06:55:49.726Z,13.4308
2023-04-15T06:56:52.040Z,13.2462
2023-04-15T06:57:54.404Z,14.5231
2023-04-15T06:58:56.716Z,13.7462
2023-04-15T06:59:59.056Z,14.8462
2023-04-15T07:01:01.419Z,14.1000
2023-04-15T07:02:03.758Z,15.3462
2023-04-15T07:03:06.110Z,14.4000
2023-04-15T07:04:08.449Z,14.5846
2023-04-15T07:05:10.754Z,15.1154
2023-04-15T07:06:13.110Z,16.1385
2023-04-15T07:07:15.426Z,15.5462
2023-04-15T07:08:17.760Z,15.6538
2023-04-15T07:09:20.091Z,17.8538
2023-04-15T07:10:23.916Z,17.2154
2023-04-15T07:11:24.880Z,16.8750
2023-04-15T07:12:27.115Z,17.3846
2023-04-15T07:13:29.476Z,18.0308
2023-04-15T07:14:31.788Z,18.0462
2023-04-15T07:15:34.134Z,18.4000
2023-04-15T07:16:36.516Z,17.6077
2023-04-15T07:17:38.840Z,16.8538
2023-04-15T07:18:41.141Z,18.3462
2023-04-15T07:19:43.482Z,17.6308
2023-04-15T07:20:45.821Z,17.0769
2023-04-15T07:21:48.173Z,16.5154
2023-04-15T07:22:50.492Z,17.9000
2023-04-15T07:23:52.862Z,20.8308
2023-04-15T07:24:55.177Z,19.9000
2023-04-15T07:25:57.508Z,19.2923
2023-04-15T07:27:01.021Z,19.7769
2023-04-15T07:28:02.169Z,20.9500
2023-04-15T07:29:04.516Z,20.6923
2023-04-15T07:30:06.855Z,20.0231
2023-04-15T07:31:09.261Z,19.8769
2023-04-15T07:32:11.538Z,20.1308
2023-04-15T07:33:13.863Z,20.7692
2023-04-15T07:34:16.207Z,20.5615
2023-04-15T07:35:18.542Z,21.9769
2023-04-15T07:36:20.888Z,22.3923
2023-04-15T07:37:23.240Z,20.6077
2023-04-15T07:38:25.576Z,20.1615
2023-04-15T07:39:27.912Z,22.4769
2023-04-15T07:40:30.249Z,22.1615
2023-04-15T07:41:32.578Z,21.4846
2023-04-15T07:42:34.954Z,22.3462
2023-04-15T07:43:37.264Z,21.2923
2023-04-15T07:44:39.596Z,21.0846
2023-04-15T07:45:41.935Z,21.0769
2023-04-15T07:46:44.271Z,19.1154
2023-04-15T07:47:46.651Z,19.8538
2023-04-15T07:48:48.941Z,19.7538
2023-04-15T07:49:51.275Z,19.8923
2023-04-15T07:50:53.638Z,20.1000
2023-04-15T07:51:55.968Z,19.2231
2023-04-15T07:52:58.296Z,20.7154
2023-04-15T07:54:00.631Z,20.2154
2023-04-15T07:55:02.966Z,20.1077
2023-04-15T07:56:05.306Z,20.7154
2023-04-15T07:57:07.654Z,19.2385
2023-04-15T07:58:09.982Z,20.7846
2023-04-15T07:59:12.324Z,19.5308
2023-04-15T08:00:14.659Z,19.3538
2023-04-15T08:01:17.000Z,19.6308
2023-04-15T08:02:19.421Z,23.6000
2023-04-15T08:03:21.732Z,23.2769
2023-04-15T08:04:24.123Z,23.5385
2023-04-15T08:05:26.363Z,23.2462
2023-04-15T08:06:28.703Z,23.6538
2023-04-15T08:07:31.032Z,23.9769
2023-04-15T08:08:33.409Z,23.2923
2023-04-15T08:09:35.749Z,23.8462
2023-04-15T08:10:38.046Z,23.0154
2023-04-15T08:11:40.386Z,23.3308
2023-04-15T08:12:42.727Z,22.3385
2023-04-15T08:13:45.059Z,22.4231
2023-04-15T08:14:47.409Z,22.0231
2023-04-15T08:15:49.786Z,20.4385
2023-04-15T08:16:52.080Z,21.8308
2023-04-15T08:17:54.468Z,23.4769
2023-04-15T08:18:56.774Z,22.3923
2023-04-15T08:19:59.119Z,21.6846
2023-04-15T08:21:01.423Z,22.0077
2023-04-15T08:22:03.784Z,24.0692
2023-04-15T08:23:06.103Z,22.0000
2023-04-15T08:24:08.499Z,23.2615
2023-04-15T08:25:10.782Z,22.4231
2023-04-15T08:26:13.131Z,24.2154
2023-04-15T08:27:15.473Z,23.1077
2023-04-15T08:28:17.802Z,21.9538
2023-04-15T08:29:20.144Z,22.8615
2023-04-15T08:30:22.482Z,22.5923
2023-04-15T08:31:24.853Z,22.2308
2023-04-15T08:32:27.184Z,22.2462
2023-04-15T08:33:29.515Z,23.1077
2023-04-15T08:34:31.853Z,23.4846
2023-04-15T08:35:34.169Z,21.4846
2023-04-15T08:36:36.507Z,22.4846
2023-04-15T08:37:38.847Z,23.2308
2023-04-15T08:38:41.179Z,22.9615
2023-04-15T08:39:43.528Z,23.1462
2023-04-15T08:40:45.862Z,21.9846
2023-04-15T08:41:48.194Z,21.5692
2023-04-15T08:42:51.192Z,21.4769
2023-04-15T08:43:52.892Z,22.4750
2023-04-15T08:44:55.215Z,22.3923
2023-04-15T08:45:57.619Z,21.6462
2023-04-15T08:46:59.957Z,23.2077
2023-04-15T08:48:02.381Z,22.3462
2023-04-15T08:49:04.841Z,23.5333
2023-04-15T08:50:06.908Z,22.6583
2023-04-15T08:51:09.263Z,23.2846
2023-04-15T08:52:11.586Z,22.4462
2023-04-15T08:53:13.931Z,23.6538
2023-04-15T08:54:16.269Z,21.8231
2023-04-15T08:55:18.622Z,21.3154
2023-04-15T08:56:21.278Z,22.2923
2023-04-15T08:57:23.287Z,21.4083
2023-04-15T08:58:25.629Z,22.4923
2023-04-15T08:59:27.962Z,24.7615
2023-04-15T09:00:30.452Z,22.4846
2023-04-15T09:01:32.679Z,23.7385
2023-04-15T09:02:35.052Z,24.2538
2023-04-15T09:03:37.481Z,23.8769
2023-04-15T09:04:39.654Z,24.0308
2023-04-15T09:05:41.999Z,24.6000
2023-04-15T09:06:44.390Z,23.2154
2023-04-15T09:07:46.764Z,24.1615
2023-04-15T09:08:49.021Z,24.2692
2023-04-15T09:09:51.364Z,23.7308
2023-04-15T09:10:53.706Z,23.7923
2023-04-15T09:11:56.539Z,23.5538
2023-04-15T09:12:58.389Z,24.1333
2023-04-15T09:14:00.745Z,24.4923
2023-04-15T09:15:03.077Z,24.0692
2023-04-15T09:16:05.434Z,24.4615
2023-04-15T09:17:07.796Z,24.4923
2023-04-15T09:18:10.124Z,23.8692
2023-04-15T09:19:12.420Z,24.1154
2023-04-15T09:20:14.792Z,23.4923
2023-04-15T09:21:17.108Z,24.5385
2023-04-15T09:22:19.466Z,24.8615
2023-04-15T09:23:21.795Z,23.1846
2023-04-15T09:24:24.139Z,22.0846
2023-04-15T09:25:26.478Z,22.2615
2023-04-15T09:26:28.819Z,22.1154
2023-04-15T09:27:31.200Z,23.7000
2023-04-15T09:28:33.501Z,23.2308
2023-04-15T09:29:35.849Z,22.2154
2023-04-15T09:30:38.278Z,22.8154
2023-04-15T09:31:40.550Z,24.2538
2023-04-15T09:32:43.002Z,21.2154
2023-04-15T09:33:45.216Z,20.5769
2023-04-15T09:34:47.551Z,21.3846
2023-04-15T09:35:49.885Z,21.3538
2023-04-15T09:36:52.235Z,20.9615
2023-04-15T09:37:54.573Z,22.4769
2023-04-15T09:38:56.910Z,22.9846
2023-04-15T09:39:59.271Z,21.9000
2023-04-15T09:41:01.599Z,22.5385
2023-04-15T09:42:03.937Z,22.8538
2023-04-15T09:43:06.294Z,23.4385
2023-04-15T09:44:08.622Z,22.8538
2023-04-15T09:45:10.975Z,22.8923
2023-04-15T09:46:13.309Z,23.0462
2023-04-15T09:47:15.655Z,20.8769
2023-04-15T09:48:18.002Z,23.0769
2023-04-15T09:49:20.384Z,24.4923
2023-04-15T09:50:22.681Z,23.2615
2023-04-15T09:51:25.030Z,24.2692
2023-04-15T09:52:27.419Z,22.8923
2023-04-15T09:53:31.249Z,24.3077
2023-04-15T09:54:32.059Z,22.7750
2023-04-15T09:55:34.408Z,23.4846
2023-04-15T09:56:36.747Z,23.9846
2023-04-15T09:57:39.103Z,23.9462
2023-04-15T09:58:41.448Z,23.2000
2023-04-15T09:59:43.775Z,23.6538
2023-04-15T10:00:46.115Z,23.7615
2023-04-15T10:01:48.588Z,23.6000
2023-04-15T10:02:50.920Z,24.9385
2023-04-15T10:03:53.299Z,23.3692
2023-04-15T10:04:55.479Z,23.7077
2023-04-15T10:05:57.821Z,23.2000
2023-04-15T10:07:00.166Z,23.9308
2023-04-15T10:08:02.520Z,23.2538
2023-04-15T10:09:04.862Z,25.7846
2023-04-15T10:10:07.210Z,23.8538
2023-04-15T10:11:09.538Z,24.9769
2023-04-15T10:12:11.866Z,23.5154
2023-04-15T10:13:14.206Z,22.4077
2023-04-15T10:14:16.557Z,21.8615
2023-04-15T10:15:18.887Z,22.8308
2023-04-15T10:16:21.301Z,23.9923
2023-04-15T10:17:23.620Z,23.1462
2023-04-15T10:18:25.979Z,22.7308
2023-04-15T10:19:28.329Z,24.3154
2023-04-15T10:20:30.657Z,23.6692
2023-04-15T10:21:32.987Z,23.8308
2023-04-15T10:22:35.331Z,22.4154
2023-04-15T10:23:37.667Z,20.2462
2023-04-15T10:24:40.019Z,20.0615
2023-04-15T10:25:42.338Z,19.9692
2023-04-15T10:26:44.686Z,18.1308
2023-04-15T10:27:47.022Z,18.5000
2023-04-15T10:28:49.378Z,19.4846
2023-04-15T10:29:51.704Z,19.8846
2023-04-15T10:30:54.062Z,21.1231
2023-04-15T10:31:56.393Z,20.1462
2023-04-15T10:32:58.778Z,19.9154
2023-04-15T10:34:01.390Z,19.7692
2023-04-15T10:35:03.423Z,18.7083
2023-04-15T10:36:05.744Z,20.6154
2023-04-15T10:37:08.071Z,20.0615
2023-04-15T10:38:10.412Z,18.7692
2023-04-15T10:39:12.751Z,19.0077
2023-04-15T10:40:15.109Z,17.7077
2023-04-15T10:41:19.530Z,18.3538
2023-04-15T10:42:19.801Z,17.8833
2023-04-15T10:43:22.110Z,19.2692
2023-04-15T10:44:24.452Z,18.7231
2023-04-15T10:45:26.801Z,17.9385
2023-04-15T10:46:29.188Z,19.1462
2023-04-15T10:47:31.471Z,18.2538
2023-04-15T10:48:33.796Z,17.9308
2023-04-15T10:49:36.146Z,18.6846
2023-04-15T10:50:38.477Z,18.0308
2023-04-15T10:51:40.809Z,19.0231
2023-04-15T10:52:43.152Z,19.0846
2023-04-15T10:53:45.473Z,19.4462
2023-04-15T10:54:47.817Z,18.4462
2023-04-15T10:55:50.174Z,18.4077
2023-04-15T10:56:52.503Z,17.5846
2023-04-15T10:57:54.828Z,17.7692
2023-04-15T10:58:57.163Z,16.7923
2023-04-15T10:59:59.509Z,16.1385
2023-04-15T11:01:01.934Z,15.9308
2023-04-15T11:02:04.332Z,16.0846
2023-04-15T11:03:06.738Z,16.7231
2023-04-15T11:04:09.021Z,16.6462
2023-04-15T11:05:11.181Z,15.9385
2023-04-15T11:06:13.533Z,16.5385
2023-04-15T11:07:15.856Z,16.1231
2023-04-15T11:08:18.194Z,14.9308
2023-04-15T11:09:20.541Z,16.4923
2023-04-15T11:10:22.873Z,16.5462
2023-04-15T11:11:25.345Z,13.7692
2023-04-15T11:12:27.546Z,15.6923
2023-04-15T11:13:29.882Z,14.5846
2023-04-15T11:14:32.214Z,15.9538
2023-04-15T11:15:34.558Z,15.8692
2023-04-15T11:16:36.928Z,16.5538
2023-04-15T11:17:39.256Z,17.2846
2023-04-15T11:18:41.560Z,16.0308
2023-04-15T11:19:43.893Z,18.5692
2023-04-15T11:20:46.228Z,19.4154
2023-04-15T11:21:48.573Z,17.3308
2023-04-15T11:22:50.928Z,17.7923
2023-04-15T11:23:53.242Z,19.6846
2023-04-15T11:24:55.568Z,17.7077
2023-04-15T11:25:57.928Z,18.7154
2023-04-15T11:27:00.239Z,18.9769
2023-04-15T11:28:02.570Z,18.4000
2023-04-15T11:29:05.147Z,18.7231
2023-04-15T11:30:07.241Z,19.7833
2023-04-15T11:31:09.589Z,17.2462
2023-04-15T11:32:12.103Z,17.6615
2023-04-15T11:33:14.261Z,16.8615
2023-04-15T11:34:16.587Z,17.9692
2023-04-15T11:35:18.929Z,18.1769
2023-04-15T11:36:21.268Z,18.0000
2023-04-15T11:37:23.617Z,18.5077
2023-04-15T11:38:25.960Z,18.5000
2023-04-15T11:39:28.276Z,16.9538
2023-04-15T11:40:30.608Z,18.3692
2023-04-15T11:41:32.960Z,18.6308
2023-04-15T11:42:48.757Z,19.1538
2023-04-15T11:43:37.648Z,17.6000
2023-04-15T11:44:39.967Z,17.4769
2023-04-15T11:45:42.336Z,17.3000
2023-04-15T11:46:45.664Z,16.7923
2023-04-15T11:47:47.025Z,16.9500
2023-04-15T11:48:49.318Z,17.2308
2023-04-15T11:49:51.638Z,16.3538
2023-04-15T11:50:53.990Z,18.5308
2023-04-15T11:51:56.331Z,18.9154
2023-04-15T11:52:58.656Z,19.6846
2023-04-15T11:54:01.113Z,18.7615
2023-04-15T11:55:03.344Z,19.2615
2023-04-15T11:56:05.683Z,17.7615
2023-04-15T11:57:08.005Z,18.0462
2023-04-15T11:58:10.356Z,17.8231
2023-04-15T11:59:12.681Z,19.0846
2023-04-15T12:00:15.016Z,17.4692
2023-04-15T12:01:17.372Z,18.7692
2023-04-15T12:02:19.808Z,18.5000
2023-04-15T12:03:22.174Z,18.2462
2023-04-15T12:04:25.872Z,17.3917
2023-04-15T12:05:26.705Z,17.5083
2023-04-15T12:06:29.053Z,15.7308
2023-04-15T12:07:32.166Z,15.9923
2023-04-15T12:08:33.725Z,15.8250
2023-04-15T12:09:36.067Z,15.6154
2023-04-15T12:10:38.396Z,16.2000
2023-04-15T12:11:40.751Z,15.8462
2023-04-15T12:12:43.078Z,14.3769
2023-04-15T12:13:45.412Z,15.8385
2023-04-15T12:14:47.771Z,15.3000
2023-04-15T12:15:50.122Z,17.5000
2023-04-15T12:16:52.585Z,17.1615
2023-04-15T12:17:54.820Z,17.3154
2023-04-15T12:18:57.118Z,17.3077
2023-04-15T12:19:59.507Z,17.2923
2023-04-15T12:21:01.821Z,17.2769
2023-04-15T12:22:04.142Z,18.2000
2023-04-15T12:23:06.485Z,18.1385
2023-04-15T12:24:08.833Z,17.7231
2023-04-15T12:25:11.158Z,19.9231
2023-04-15T12:26:13.491Z,16.9538
2023-04-15T12:27:15.864Z,16.0769
2023-04-15T12:28:18.180Z,18.5538
2023-04-15T12:29:20.499Z,18.9538
2023-04-15T12:30:22.831Z,18.2231
2023-04-15T12:31:25.231Z,17.9154
2023-04-15T12:32:27.549Z,18.0923
2023-04-15T12:33:29.844Z,20.0308